logo
Search for airport 
image banner adimage banner adimage banner ad
image banner ad

EPCZE - Czersk

Located in , Poland

ICAO - , IATA -

Data provided by Airmate  

General information

Coordinates: N53°34'34" E18°29'7"
Elevation is 278 feet MSL.
 
View others Airports in Kuyavia-Pomerania

Operational data

Special qualification required
Current time UTC:
Current local time:
Weather at : EPBY - Bydgoszcz ( 63 km )
METAR: EPBY 191530Z 16003KT 120V210 9999 SCT016 06/04 Q1002
TAF: TAF EPBY 191130Z 1912/2012 24008KT 9999 BKN035 TEMPO 1912/1918 20015G25KT -SHRA SCT014 BKN020CB PROB40 TEMPO 1914/1918 4000 SHRA BKN009 BKN014CB BECMG 1915/1918 18010KT BKN012 TEMPO 1916/2006 -RA BKN008
View NOTAMs / SUP AIP / TFR affecting this airport [VIEW]
Communications frequencies: [VIEW]

Runways:

RWY identifierQFULength (ft)Width (ft)SurfaceLDA (ft)
16-1°7546164ASPH
34-1°7546164ASPH

Airport contact information

Address: Poland

Satellite view of EPCZE